createdAt,value
2018-10-16T00:03:00.245Z,21.98
2018-10-16T00:08:03.697Z,21.99
2018-10-16T00:13:08.148Z,22.02
2018-10-16T00:18:12.591Z,22.06
2018-10-16T00:23:16.116Z,22.08
2018-10-16T00:28:19.620Z,22.11
2018-10-16T00:33:23.152Z,22.11
2018-10-16T00:38:26.773Z,22.12
2018-10-16T00:43:30.317Z,22.15
2018-10-16T00:48:33.835Z,22.18
2018-10-16T00:53:37.454Z,22.17
2018-10-16T00:58:40.977Z,22.17
2018-10-16T01:03:44.538Z,22.18
2018-10-16T01:08:48.092Z,22.18
2018-10-16T01:13:52.137Z,22.18
2018-10-16T01:18:55.705Z,22.20
2018-10-16T01:23:59.229Z,22.22
2018-10-16T01:29:02.693Z,22.22
2018-10-16T01:34:06.178Z,22.22
2018-10-16T01:39:09.724Z,22.24
2018-10-16T01:44:13.282Z,22.26
2018-10-16T01:49:16.811Z,22.25
2018-10-16T01:54:20.280Z,22.27
2018-10-16T01:59:23.771Z,22.24
2018-10-16T02:04:27.271Z,22.22
2018-10-16T02:09:30.756Z,22.22
2018-10-16T02:14:34.360Z,22.14
2018-10-16T02:19:37.883Z,22.10
2018-10-16T02:24:41.383Z,22.06
2018-10-16T02:29:44.864Z,22.03
2018-10-16T02:34:48.378Z,22.02
2018-10-16T02:39:51.912Z,21.98
2018-10-16T02:44:55.420Z,21.96
2018-10-16T02:49:58.916Z,21.94
2018-10-16T02:55:02.429Z,21.92
2018-10-16T03:00:06.194Z,21.91
2018-10-16T03:05:09.694Z,21.87
2018-10-16T03:10:13.215Z,21.83
2018-10-16T03:15:16.718Z,21.81
2018-10-16T03:20:20.307Z,21.79
2018-10-16T03:25:23.761Z,21.77
2018-10-16T03:30:27.265Z,21.75
2018-10-16T03:35:30.788Z,21.73
2018-10-16T03:40:34.302Z,21.79
2018-10-16T03:45:37.847Z,21.75
2018-10-16T03:50:41.332Z,21.78
2018-10-16T03:55:44.831Z,21.77
2018-10-16T04:00:48.312Z,21.76
2018-10-16T04:05:52.034Z,21.72
2018-10-16T04:10:55.533Z,21.68
2018-10-16T04:15:59.011Z,21.67
2018-10-16T04:21:02.501Z,21.68
2018-10-16T04:26:06.060Z,21.65
2018-10-16T04:31:10.969Z,21.62
2018-10-16T04:36:14.432Z,21.61
2018-10-16T04:41:17.925Z,21.60
2018-10-16T04:46:21.492Z,21.59
2018-10-16T04:51:24.974Z,21.57
2018-10-16T04:56:28.484Z,21.55
2018-10-16T05:01:31.939Z,21.54
2018-10-16T05:06:35.469Z,21.53
2018-10-16T05:11:44.181Z,21.52
2018-10-16T05:16:47.772Z,21.53
2018-10-16T05:21:51.221Z,21.51
2018-10-16T05:26:54.726Z,21.50
2018-10-16T05:31:58.182Z,21.33
2018-10-16T05:37:01.641Z,21.16
2018-10-16T05:42:05.285Z,21.11
2018-10-16T05:47:08.761Z,21.10
2018-10-16T05:52:12.473Z,21.06
2018-10-16T05:57:16.021Z,21.01
2018-10-16T06:02:19.482Z,20.94
2018-10-16T06:07:22.951Z,20.93
2018-10-16T06:12:26.463Z,20.86
2018-10-16T06:17:30.053Z,20.86
2018-10-16T06:22:33.497Z,20.84
2018-10-16T06:27:37.004Z,20.83
2018-10-16T06:32:40.731Z,20.98
2018-10-16T06:37:44.185Z,21.02
2018-10-16T06:42:47.648Z,21.00
2018-10-16T06:47:51.187Z,20.78
2018-10-16T06:52:54.614Z,20.83
2018-10-16T06:57:58.073Z,20.91
2018-10-16T07:03:01.548Z,20.89
2018-10-16T07:08:05.070Z,20.51
2018-10-16T07:13:08.530Z,20.71
2018-10-16T07:18:11.981Z,20.59
2018-10-16T07:23:15.488Z,20.56
2018-10-16T07:28:18.961Z,20.54
2018-10-16T07:33:22.425Z,20.22
2018-10-16T07:38:26.013Z,20.12
2018-10-16T07:43:29.392Z,20.45
2018-10-16T07:48:33.007Z,20.47
2018-10-16T07:53:36.354Z,20.55
2018-10-16T07:58:39.826Z,20.47
2018-10-16T08:03:43.303Z,20.32
2018-10-16T08:08:46.743Z,20.47
2018-10-16T08:13:50.198Z,20.56
2018-10-16T08:18:53.669Z,20.34
2018-10-16T08:23:57.130Z,20.56
2018-10-16T08:29:00.607Z,20.56
2018-10-16T08:34:04.524Z,20.54
2018-10-16T08:39:27.222Z,20.33
2018-10-16T08:44:42.748Z,19.84
2018-10-16T08:49:57.524Z,19.94
2018-10-16T08:55:01.044Z,20.08
2018-10-16T09:00:04.846Z,20.34
2018-10-16T09:05:08.308Z,20.12
2018-10-16T09:10:11.773Z,19.34
2018-10-16T09:15:15.228Z,18.22
2018-10-16T09:20:18.697Z,18.05
2018-10-16T09:25:22.143Z,18.03
2018-10-16T09:30:25.608Z,18.03
2018-10-16T09:35:33.904Z,17.73
2018-10-16T09:40:37.319Z,18.29
2018-10-16T09:45:40.755Z,18.85
2018-10-16T09:50:44.231Z,19.12
2018-10-16T09:55:47.656Z,19.65
2018-10-16T10:00:56.340Z,19.92
2018-10-16T10:05:59.813Z,19.88
2018-10-16T10:11:03.427Z,19.94
2018-10-16T10:16:07.121Z,19.91
2018-10-16T10:21:10.538Z,20.17
2018-10-16T10:26:13.960Z,19.92
2018-10-16T10:31:17.453Z,20.12
2018-10-16T10:36:20.895Z,20.15
2018-10-16T10:41:24.320Z,20.18
2018-10-16T10:46:27.851Z,19.49
2018-10-16T10:51:31.690Z,19.42
2018-10-16T10:56:34.937Z,19.39
2018-10-16T11:01:38.332Z,18.94
2018-10-16T11:06:41.760Z,19.25
2018-10-16T11:11:50.202Z,19.71
2018-10-16T11:16:53.636Z,19.94
2018-10-16T11:21:57.121Z,20.05
2018-10-16T11:27:00.587Z,19.46
2018-10-16T11:32:04.013Z,18.74
2018-10-16T11:37:07.705Z,19.37
2018-10-16T11:42:11.070Z,19.89
2018-10-16T11:47:14.505Z,20.30
2018-10-16T11:52:18.037Z,19.98
2018-10-16T11:57:21.472Z,19.60
2018-10-16T12:02:25.034Z,20.00
2018-10-16T12:07:28.460Z,20.21
2018-10-16T12:12:31.930Z,20.27
2018-10-16T12:17:40.611Z,20.27
2018-10-16T12:22:44.108Z,20.17
2018-10-16T12:27:47.593Z,20.27
2018-10-16T12:32:51.084Z,20.00
2018-10-16T12:37:54.624Z,20.16
2018-10-16T12:42:58.116Z,20.29
2018-10-16T12:48:01.621Z,19.86
2018-10-16T12:53:05.237Z,20.34
2018-10-16T12:58:08.704Z,20.33
2018-10-16T13:03:12.188Z,18.96
2018-10-16T13:08:15.649Z,18.82
2018-10-16T13:13:19.097Z,19.41
2018-10-16T13:18:22.581Z,18.60
2018-10-16T13:23:26.057Z,18.77
2018-10-16T13:28:29.568Z,20.23
2018-10-16T13:33:33.169Z,20.57
2018-10-16T13:38:36.694Z,20.70
2018-10-16T13:43:40.207Z,20.78
2018-10-16T13:48:43.830Z,20.88
2018-10-16T13:53:47.338Z,20.94
2018-10-16T13:58:50.793Z,20.98
2018-10-16T14:03:54.268Z,21.02
2018-10-16T14:08:57.749Z,21.02
2018-10-16T14:14:01.355Z,21.02
2018-10-16T14:19:05.241Z,21.02
2018-10-16T14:24:08.808Z,21.05
2018-10-16T14:29:12.276Z,21.06
2018-10-16T14:34:15.835Z,21.09
2018-10-16T14:39:19.294Z,21.11
2018-10-16T14:44:23.101Z,21.16
2018-10-16T14:49:26.581Z,21.19
2018-10-16T14:54:30.427Z,21.22
2018-10-16T14:59:33.921Z,21.26
2018-10-16T15:04:37.450Z,21.31
2018-10-16T15:09:41.187Z,21.37
2018-10-16T15:14:44.669Z,21.44
2018-10-16T15:19:48.196Z,21.48
2018-10-16T15:24:51.658Z,21.63
2018-10-16T15:29:55.297Z,21.65
2018-10-16T15:34:59.039Z,21.70
2018-10-16T15:40:02.675Z,21.74
2018-10-16T15:45:07.953Z,21.82
2018-10-16T15:50:12.224Z,21.82
2018-10-16T15:55:16.490Z,21.81
2018-10-16T16:00:20.036Z,21.84
2018-10-16T16:05:23.664Z,21.89
2018-10-16T16:10:27.294Z,21.92
2018-10-16T16:15:30.825Z,21.97
2018-10-16T16:20:34.322Z,22.07
2018-10-16T16:25:37.829Z,22.14
2018-10-16T16:30:41.316Z,22.09
2018-10-16T16:35:44.800Z,22.21
2018-10-16T16:40:48.330Z,22.12
2018-10-16T16:45:51.947Z,22.13
2018-10-16T16:50:55.428Z,22.19
2018-10-16T16:55:59.110Z,22.21
2018-10-16T17:01:02.810Z,22.23
2018-10-16T17:06:06.510Z,22.26
2018-10-16T17:11:10.154Z,22.28
2018-10-16T17:16:13.746Z,22.28
2018-10-16T17:21:17.279Z,22.31
2018-10-16T17:26:20.930Z,22.32
2018-10-16T17:31:24.418Z,22.33
2018-10-16T17:36:27.917Z,22.35
2018-10-16T17:41:31.468Z,22.37
2018-10-16T17:46:35.418Z,22.38
2018-10-16T17:51:38.997Z,22.52
2018-10-16T17:56:42.513Z,22.45
2018-10-16T18:01:46.178Z,22.47
2018-10-16T18:06:49.856Z,22.45
2018-10-16T18:11:53.774Z,22.43
2018-10-16T18:16:57.320Z,22.57
2018-10-16T18:22:00.789Z,22.51
2018-10-16T18:27:04.388Z,22.47
2018-10-16T18:32:07.870Z,22.47
2018-10-16T18:37:11.424Z,22.47
2018-10-16T18:42:16.422Z,22.45
2018-10-16T18:47:20.079Z,22.49
2018-10-16T18:52:23.695Z,22.47
2018-10-16T18:57:27.502Z,22.48
2018-10-16T19:02:30.987Z,22.47
2018-10-16T19:07:34.878Z,22.47
2018-10-16T19:12:40.497Z,22.47
2018-10-16T19:17:44.958Z,22.48
2018-10-16T19:22:48.501Z,22.50
2018-10-16T19:27:58.273Z,22.51
2018-10-16T19:33:01.911Z,22.52
2018-10-16T19:38:05.617Z,22.50
2018-10-16T19:43:09.167Z,22.51
2018-10-16T19:48:12.773Z,22.51
2018-10-16T19:53:16.276Z,22.53
2018-10-16T19:58:19.904Z,22.56
2018-10-16T20:03:23.677Z,22.56
2018-10-16T20:08:27.521Z,22.56
2018-10-16T20:13:31.092Z,22.58
2018-10-16T20:18:34.673Z,22.56
2018-10-16T20:23:38.296Z,22.58
2018-10-16T20:28:41.969Z,22.57
2018-10-16T20:33:45.537Z,22.57
2018-10-16T20:38:49.148Z,22.58
2018-10-16T20:43:52.669Z,22.59
2018-10-16T20:48:56.310Z,22.58
2018-10-16T20:54:00.942Z,22.57
2018-10-16T20:59:04.784Z,22.57
2018-10-16T21:04:08.712Z,22.59
2018-10-16T21:09:12.305Z,22.58
2018-10-16T21:14:15.807Z,22.58
2018-10-16T21:19:19.402Z,22.60
2018-10-16T21:24:22.944Z,22.59
2018-10-16T21:29:27.113Z,22.59
2018-10-16T21:34:31.122Z,22.59
2018-10-16T21:39:35.124Z,22.61
2018-10-16T21:44:38.989Z,22.60
2018-10-16T21:49:42.515Z,22.60
2018-10-16T21:54:46.100Z,22.61
2018-10-16T21:59:49.627Z,22.61
2018-10-16T22:04:53.222Z,22.61
2018-10-16T22:09:56.707Z,22.61
2018-10-16T22:15:00.190Z,22.60
2018-10-16T22:20:03.853Z,22.58
2018-10-16T22:25:07.409Z,22.58
2018-10-16T22:30:10.924Z,22.59
2018-10-16T22:35:14.567Z,22.57
2018-10-16T22:40:17.991Z,22.57
2018-10-16T22:45:21.639Z,22.58
2018-10-16T22:50:25.177Z,22.56
2018-10-16T22:55:28.700Z,22.57
2018-10-16T23:00:32.373Z,22.59
2018-10-16T23:05:35.851Z,22.57
2018-10-16T23:10:39.355Z,22.57
2018-10-16T23:15:42.957Z,22.56
2018-10-16T23:20:46.452Z,22.56
2018-10-16T23:25:50.077Z,22.56
2018-10-16T23:30:53.705Z,22.56
2018-10-16T23:35:57.309Z,22.56
2018-10-16T23:41:00.895Z,22.55
2018-10-16T23:46:04.599Z,22.56
2018-10-16T23:51:08.462Z,22.55
2018-10-16T23:56:11.948Z,22.56
